Pittsburg, NH

8:11 AM EST on December 25, 2014 (GMT -0500)
APRSWXNET Pittsburg NH US | Change Station
CLOSE
Current Station
Personal Weather Station
Location: Pittsburg, NH
Elevation: 1833 ft
Nearby Weather Stations
Active Advisory: Areal Flood Watch Active Notice: Public Information Statement

Elev 1833 ft 45.11 °N, 71.29 °W | Updated 41 minutes ago

Rain
Rain
46 °F
Feels Like 44 °F
N
4
Wind Variable Wind from SW
Gusts 20.0 mph

Today
High -- | Low -- °F
--% Chance of Precip.
Yesterday
High -- | Low -- °F
Precip. -- in
7:22 AM 4:08 PM
Waxing Crescent, 16% visible
Pressure 29.43 in
Visibility 9.0 miles
Clouds Scattered Clouds 3400 ft
Mostly Cloudy 4600 ft
Overcast 7000 ft
Windchill 44 °F
Dew Point 45 °F
Humidity 97%
Rainfall 0.45 in
Snow Depth Not available.
UV 0 out of 12
Pollen .10 out of 12
Air Quality Not available.
Flu Activity Not available.
METAR KBML 251252Z AUTO 25005G16KT 9SM -RA SCT034 BKN046 OVC070 08/06 A2940 RMK AO2 SLP964 P0004 T00830056

More Conditions Fewer Conditions

Pressure 29.43 in
Visibility 9.0 miles
Clouds Scattered Clouds 3400 ft
Mostly Cloudy 4600 ft
Overcast 7000 ft
Windchill 44 °F
Dew Point 45 °F
Humidity 97%
Rainfall 0.45 in
Snow Depth Not available.
UV 0 out of 12
Pollen .10 out of 12
Air Quality Not available.
Flu Activity Not available.
METAR KBML 251252Z AUTO 25005G16KT 9SM -RA SCT034 BKN046 OVC070 08/06 A2940 RMK AO2 SLP964 P0004 T00830056

More Conditions Fewer Conditions

10-Day Weather Forecast

Almanac

Astronomy

Dec. 25, 2014 Rise Set
Actual Time
Civil Twilight
Nautical Twilight
Astronomical Twilight
Moon
Length of Visible Light
Length of Day
Tomorrow will be .
, % of the Moon is Illuminated

Today's Extremes

State Highs State Lows

Community

WunderPhotos

Upload Photos

1,780,268 photos uploaded!

WunderBlogs® & News

Nearby

Air Quality

  Air Quality AQ Index Pollutant
Not available.

Snow Depth

Station Depth Elevation

Earthquake Activity

City Distance Mag. Time & Date
Minimum magnitude displayed is 2.5.

Coastal Water Temperatures

Place Temperature

Nearby Weather Stations